createdAt,value
2023-05-15T00:00:40.325Z,101508.84
2023-05-15T00:03:08.256Z,101506.63
2023-05-15T00:05:36.129Z,101504.09
2023-05-15T00:08:03.861Z,101503.22
2023-05-15T00:10:31.591Z,101500.69
2023-05-15T00:12:59.332Z,101502.44
2023-05-15T00:15:28.528Z,101507.44
2023-05-15T00:17:56.580Z,101501.22
2023-05-15T00:20:24.448Z,101491.47
2023-05-15T00:22:52.291Z,101497.94
2023-05-15T00:25:20.225Z,101498.44
2023-05-15T00:27:48.019Z,101486.06
2023-05-15T00:30:16.482Z,101483.63
2023-05-15T00:32:45.646Z,101485.88
2023-05-15T00:35:13.518Z,101496.81
2023-05-15T00:37:41.758Z,101493.22
2023-05-15T00:40:13.411Z,101492.56
2023-05-15T00:42:41.933Z,101488.34
2023-05-15T00:45:11.981Z,101484.59
2023-05-15T00:47:41.947Z,101486.22
2023-05-15T00:50:12.263Z,101481.72
2023-05-15T00:52:40.364Z,101486.84
2023-05-15T00:55:08.880Z,101482.59
2023-05-15T00:57:36.924Z,101480.88
2023-05-15T01:00:10.426Z,101480.88
2023-05-15T01:02:38.484Z,101490.88
2023-05-15T01:05:09.064Z,101491.22
2023-05-15T01:07:44.688Z,101467.31
2023-05-15T01:10:13.199Z,101483.84
2023-05-15T01:12:42.999Z,101467.38
2023-05-15T01:15:11.753Z,101478.38
2023-05-15T01:17:39.653Z,101477.00
2023-05-15T01:20:12.022Z,101474.94
2023-05-15T01:22:52.784Z,101480.88
2023-05-15T01:25:55.688Z,101476.78
2023-05-15T01:28:31.808Z,101473.72
2023-05-15T01:31:03.972Z,101481.84
2023-05-15T01:33:39.354Z,101480.63
2023-05-15T01:36:14.564Z,101484.81
2023-05-15T01:38:47.310Z,101483.94
2023-05-15T01:41:22.284Z,101473.75
2023-05-15T01:43:57.795Z,101465.94
2023-05-15T01:46:31.090Z,101479.19
2023-05-15T01:49:01.970Z,101480.09
2023-05-15T01:51:31.464Z,101480.34
2023-05-15T01:54:00.585Z,101475.94
2023-05-15T01:56:28.492Z,101476.72
2023-05-15T01:59:00.069Z,101468.00
2023-05-15T02:01:30.804Z,101465.66
2023-05-15T02:03:58.833Z,101471.28
2023-05-15T02:06:27.059Z,101470.38
2023-05-15T02:08:58.264Z,101461.63
2023-05-15T02:11:26.062Z,101460.25
2023-05-15T02:13:55.995Z,101456.66
2023-05-15T02:16:25.188Z,101458.19
2023-05-15T02:18:53.310Z,101449.84
2023-05-15T02:21:21.146Z,101462.16
2023-05-15T02:23:49.128Z,101455.28
2023-05-15T02:26:31.284Z,101457.00
2023-05-15T02:29:11.158Z,101447.81
2023-05-15T02:31:48.617Z,101444.94
2023-05-15T02:34:23.631Z,101451.00
2023-05-15T02:36:54.263Z,101444.81
2023-05-15T02:39:25.106Z,101443.44
2023-05-15T02:41:54.745Z,101453.72
2023-05-15T02:44:23.800Z,101463.81
2023-05-15T02:46:54.952Z,101443.97
2023-05-15T02:49:24.169Z,101451.78
2023-05-15T02:51:52.059Z,101448.84
2023-05-15T02:54:20.268Z,101444.28
2023-05-15T02:56:48.204Z,101456.69
2023-05-15T02:59:19.788Z,101436.59
2023-05-15T03:01:47.981Z,101453.44
2023-05-15T03:04:17.370Z,101445.56
2023-05-15T03:06:45.285Z,101452.94
2023-05-15T03:09:13.243Z,101444.38
2023-05-15T03:11:41.009Z,101463.06
2023-05-15T03:14:08.952Z,101453.28
2023-05-15T03:16:38.969Z,101456.56
2023-05-15T03:19:07.501Z,101460.00
2023-05-15T03:21:36.773Z,101457.78
2023-05-15T03:24:04.855Z,101457.78
2023-05-15T03:26:32.655Z,101464.31
2023-05-15T03:29:02.065Z,101467.56
2023-05-15T03:31:30.191Z,101467.59
2023-05-15T03:33:58.096Z,101471.88
2023-05-15T03:36:26.000Z,101460.38
2023-05-15T03:38:55.384Z,101462.59
2023-05-15T03:41:23.293Z,101463.13
2023-05-15T03:43:51.147Z,101469.97
2023-05-15T03:46:20.225Z,101462.59
2023-05-15T03:48:48.162Z,101454.56
2023-05-15T03:51:16.053Z,101458.13
2023-05-15T03:53:43.893Z,101449.56
2023-05-15T03:56:13.183Z,101450.81
2023-05-15T03:58:42.131Z,101445.13
2023-05-15T04:01:09.947Z,101437.06
2023-05-15T04:03:37.747Z,101435.00
2023-05-15T04:06:06.416Z,101443.38
2023-05-15T04:08:34.176Z,101440.59
2023-05-15T04:11:02.015Z,101427.63
2023-05-15T04:13:31.175Z,101436.72
2023-05-15T04:15:59.706Z,101433.97
2023-05-15T04:18:27.435Z,101430.53
2023-05-15T04:20:55.441Z,101429.16
2023-05-15T04:23:23.353Z,101428.31
2023-05-15T04:25:51.457Z,101428.09
2023-05-15T04:28:21.028Z,101431.69
2023-05-15T04:30:50.633Z,101430.00
2023-05-15T04:33:18.332Z,101437.16
2023-05-15T04:35:46.143Z,101438.66
2023-05-15T04:38:13.821Z,101431.78
2023-05-15T04:40:41.631Z,101436.91
2023-05-15T04:43:09.662Z,101430.72
2023-05-15T04:45:37.499Z,101425.72
2023-05-15T04:48:07.169Z,101424.50
2023-05-15T04:50:34.972Z,101431.41
2023-05-15T04:53:03.480Z,101431.72
2023-05-15T04:55:33.052Z,101441.66
2023-05-15T04:58:01.752Z,101438.22
2023-05-15T05:00:29.587Z,101440.13
2023-05-15T05:02:57.595Z,101439.09
2023-05-15T05:05:27.038Z,101439.78
2023-05-15T05:07:55.016Z,101436.31
2023-05-15T05:10:23.061Z,101432.34
2023-05-15T05:12:50.821Z,101430.97
2023-05-15T05:15:18.927Z,101429.59
2023-05-15T05:17:47.086Z,101427.34
2023-05-15T05:20:14.886Z,101429.56
2023-05-15T05:22:44.078Z,101424.94
2023-05-15T05:25:11.919Z,101423.53
2023-05-15T05:27:39.807Z,101428.34
2023-05-15T05:30:08.852Z,101434.72
2023-05-15T05:32:36.866Z,101425.78
2023-05-15T05:35:06.592Z,101432.47
2023-05-15T05:37:34.457Z,101439.84
2023-05-15T05:40:05.909Z,101442.66
2023-05-15T05:42:33.972Z,101449.84
2023-05-15T05:45:01.777Z,101446.91
2023-05-15T05:47:29.720Z,101446.56
2023-05-15T05:49:57.853Z,101439.69
2023-05-15T05:52:25.592Z,101447.72
2023-05-15T05:54:53.301Z,101452.91
2023-05-15T05:57:22.467Z,101457.03
2023-05-15T05:59:50.833Z,101456.91
2023-05-15T06:02:18.840Z,101448.50
2023-05-15T06:04:47.310Z,101448.31
2023-05-15T06:07:15.515Z,101447.94
2023-05-15T06:09:45.854Z,101450.03
2023-05-15T06:12:13.655Z,101458.03
2023-05-15T06:14:42.832Z,101459.25
2023-05-15T06:17:10.728Z,101456.09
2023-05-15T06:19:38.605Z,101451.09
2023-05-15T06:22:06.758Z,101448.84
2023-05-15T06:24:34.709Z,101441.41
2023-05-15T06:27:02.443Z,101450.81
2023-05-15T06:29:30.269Z,101446.25
2023-05-15T06:31:59.628Z,101446.78
2023-05-15T06:34:27.427Z,101451.41
2023-05-15T06:36:55.463Z,101452.44
2023-05-15T06:39:23.277Z,101451.06
2023-05-15T06:41:51.027Z,101445.19
2023-05-15T06:44:20.062Z,101449.13
2023-05-15T06:46:48.124Z,101454.06
2023-05-15T06:49:17.329Z,101441.53
2023-05-15T06:51:45.104Z,101439.81
2023-05-15T06:54:12.856Z,101448.56
2023-05-15T06:56:40.538Z,101451.88
2023-05-15T06:59:08.311Z,101454.94
2023-05-15T07:01:36.119Z,101450.31
2023-05-15T07:04:04.015Z,101451.38
2023-05-15T07:06:33.216Z,101449.69
2023-05-15T07:09:01.366Z,101449.03
2023-05-15T07:11:29.485Z,101449.00
2023-05-15T07:13:57.696Z,101434.06
2023-05-15T07:16:25.528Z,101434.50
2023-05-15T07:18:53.390Z,101434.13
2023-05-15T07:21:21.198Z,101434.34
2023-05-15T07:23:50.559Z,101433.97
2023-05-15T07:26:28.700Z,101426.72
2023-05-15T07:29:02.369Z,101442.56
2023-05-15T07:31:31.196Z,101427.75
2023-05-15T07:33:59.011Z,101427.50
2023-05-15T07:36:26.768Z,101423.47
2023-05-15T07:38:56.096Z,101422.47
2023-05-15T07:41:23.809Z,101422.13
2023-05-15T07:43:51.527Z,101424.50
2023-05-15T07:46:19.277Z,101418.28
2023-05-15T07:48:47.181Z,101421.16
2023-05-15T07:51:14.926Z,101418.00
2023-05-15T07:53:42.808Z,101420.66
2023-05-15T07:56:11.956Z,101430.13
2023-05-15T07:58:40.273Z,101420.41
2023-05-15T08:01:08.084Z,101423.25
2023-05-15T08:03:35.988Z,101419.03
2023-05-15T08:06:03.844Z,101416.13
2023-05-15T08:08:31.905Z,101415.34
2023-05-15T08:11:00.026Z,101419.34
2023-05-15T08:13:29.525Z,101421.03
2023-05-15T08:15:57.596Z,101427.38
2023-05-15T08:18:25.423Z,101430.34
2023-05-15T08:20:53.308Z,101426.00
2023-05-15T08:23:21.077Z,101428.88
2023-05-15T08:25:49.127Z,101421.34
2023-05-15T08:28:16.930Z,101419.09
2023-05-15T08:30:46.320Z,101419.75
2023-05-15T08:33:14.086Z,101419.38
2023-05-15T08:35:41.887Z,101419.75
2023-05-15T08:38:09.656Z,101413.97
2023-05-15T08:40:39.936Z,101410.28
2023-05-15T08:43:15.255Z,101408.00
2023-05-15T08:45:43.922Z,101417.78
2023-05-15T08:48:17.127Z,101409.78
2023-05-15T08:50:45.901Z,101407.03
2023-05-15T08:53:14.642Z,101403.47
2023-05-15T08:55:43.192Z,101401.72
2023-05-15T08:58:11.343Z,101399.06
2023-05-15T09:00:39.544Z,101409.94
2023-05-15T09:03:08.036Z,101398.41
2023-05-15T09:05:38.832Z,101392.34
2023-05-15T09:08:09.286Z,101393.28
2023-05-15T09:10:37.130Z,101394.81
2023-05-15T09:13:07.549Z,101390.09
2023-05-15T09:15:37.203Z,101399.94
2023-05-15T09:18:07.848Z,101396.31
2023-05-15T09:20:38.964Z,101405.41
2023-05-15T09:23:22.533Z,101418.66
2023-05-15T09:25:53.504Z,101412.25
2023-05-15T09:28:30.151Z,101405.94
2023-05-15T09:31:00.056Z,101418.44
2023-05-15T09:33:32.763Z,101411.66
2023-05-15T09:36:02.286Z,101412.34
2023-05-15T09:38:30.929Z,101405.06
2023-05-15T09:41:03.860Z,101409.44
2023-05-15T09:43:35.562Z,101407.63
2023-05-15T09:46:03.675Z,101411.22
2023-05-15T09:48:32.440Z,101401.13
2023-05-15T09:51:02.173Z,101410.88
2023-05-15T09:53:31.825Z,101402.81
2023-05-15T09:55:59.873Z,101401.66
2023-05-15T09:58:27.794Z,101403.88
2023-05-15T10:00:55.693Z,101408.31
2023-05-15T10:03:24.144Z,101402.16
2023-05-15T10:06:00.075Z,101393.16
2023-05-15T10:08:29.406Z,101394.47
2023-05-15T10:11:00.971Z,101389.25
2023-05-15T10:13:31.716Z,101396.16
2023-05-15T10:16:02.183Z,101395.09
2023-05-15T10:18:34.856Z,101394.16
2023-05-15T10:21:04.619Z,101395.78
2023-05-15T10:23:36.723Z,101400.28
2023-05-15T10:26:09.958Z,101398.06
2023-05-15T10:28:38.928Z,101401.25
2023-05-15T10:31:08.200Z,101402.47
2023-05-15T10:33:38.067Z,101403.91
2023-05-15T10:36:07.367Z,101397.47
2023-05-15T10:38:37.879Z,101410.84
2023-05-15T10:41:17.331Z,101404.31
2023-05-15T10:43:47.156Z,101408.47
2023-05-15T10:46:16.082Z,101399.97
2023-05-15T10:48:44.512Z,101405.25
2023-05-15T10:51:17.340Z,101399.59
2023-05-15T10:53:47.312Z,101403.50
2023-05-15T10:56:16.565Z,101402.97
2023-05-15T10:58:49.061Z,101396.44
2023-05-15T11:01:27.992Z,101399.19
2023-05-15T11:04:13.213Z,101397.13
2023-05-15T11:06:43.762Z,101395.16
2023-05-15T11:09:38.212Z,101395.16
2023-05-15T11:12:07.904Z,101412.47
2023-05-15T11:14:38.070Z,101404.06
2023-05-15T11:17:08.063Z,101403.50
2023-05-15T11:19:42.138Z,101405.72
2023-05-15T11:22:21.304Z,101400.69
2023-05-15T11:24:53.179Z,101404.31
2023-05-15T11:27:23.251Z,101402.41
2023-05-15T11:30:20.555Z,101403.06
2023-05-15T11:32:55.555Z,101400.03
2023-05-15T11:35:25.007Z,101403.84
2023-05-15T11:37:55.544Z,101402.50
2023-05-15T11:40:26.893Z,101398.78
2023-05-15T11:43:07.000Z,101395.88
2023-05-15T11:45:36.635Z,101403.38
2023-05-15T11:48:06.579Z,101395.88
2023-05-15T11:50:36.421Z,101405.34
2023-05-15T11:53:06.330Z,101390.38
2023-05-15T11:55:37.405Z,101394.63
2023-05-15T11:58:06.166Z,101394.78
2023-05-15T12:00:34.137Z,101395.78
2023-05-15T12:03:04.654Z,101395.56
2023-05-15T12:05:32.767Z,101400.97
2023-05-15T12:08:02.163Z,101389.75
2023-05-15T12:10:31.336Z,101393.56
2023-05-15T12:13:00.939Z,101396.09
2023-05-15T12:15:28.799Z,101400.09
2023-05-15T12:17:56.775Z,101398.06
2023-05-15T12:20:24.981Z,101399.50
2023-05-15T12:22:53.074Z,101397.28
2023-05-15T12:25:21.074Z,101394.91
2023-05-15T12:27:48.976Z,101393.03
2023-05-15T12:30:18.386Z,101390.13
2023-05-15T12:32:46.571Z,101388.50
2023-05-15T12:35:14.550Z,101386.34
2023-05-15T12:37:43.037Z,101387.25
2023-05-15T12:40:12.026Z,101389.41
2023-05-15T12:42:41.286Z,101383.66
2023-05-15T12:45:20.675Z,101388.63
2023-05-15T12:47:50.221Z,101398.28
2023-05-15T12:50:19.477Z,101393.09
2023-05-15T12:52:48.460Z,101390.41
2023-05-15T12:55:19.628Z,101391.50
2023-05-15T12:57:47.563Z,101397.75
2023-05-15T13:00:21.496Z,101389.81
2023-05-15T13:02:51.515Z,101397.03
2023-05-15T13:05:19.673Z,101394.66
2023-05-15T13:07:48.665Z,101395.78
2023-05-15T13:10:16.646Z,101393.44
2023-05-15T13:12:46.435Z,101392.47
2023-05-15T13:15:29.603Z,101400.47
2023-05-15T13:18:01.022Z,101404.28
2023-05-15T13:20:29.698Z,101404.75
2023-05-15T13:22:57.869Z,101405.06
2023-05-15T13:25:25.769Z,101392.03
2023-05-15T13:27:53.926Z,101402.34
2023-05-15T13:30:22.002Z,101399.28
2023-05-15T13:32:53.267Z,101392.41
2023-05-15T13:35:22.837Z,101407.91
2023-05-15T13:37:51.174Z,101397.09
2023-05-15T13:40:19.024Z,101403.41
2023-05-15T13:42:46.784Z,101407.66
2023-05-15T13:45:19.055Z,101399.31
2023-05-15T13:47:46.999Z,101411.53
2023-05-15T13:50:17.243Z,101405.69
2023-05-15T13:52:46.735Z,101406.88
2023-05-15T13:55:14.888Z,101414.59
2023-05-15T13:57:44.246Z,101402.34
2023-05-15T14:00:14.438Z,101408.31
2023-05-15T14:03:01.268Z,101408.91
2023-05-15T14:05:31.149Z,101409.09
2023-05-15T14:07:58.914Z,101410.41
2023-05-15T14:10:27.065Z,101419.44
2023-05-15T14:12:55.276Z,101413.03
2023-05-15T14:15:23.338Z,101417.03
2023-05-15T14:17:51.124Z,101422.72
2023-05-15T14:20:19.086Z,101421.63
2023-05-15T14:22:48.446Z,101425.66
2023-05-15T14:25:16.346Z,101419.84
2023-05-15T14:27:44.203Z,101418.16
2023-05-15T14:30:12.484Z,101420.63
2023-05-15T14:32:40.284Z,101425.81
2023-05-15T14:35:08.735Z,101412.75
2023-05-15T14:37:37.667Z,101426.09
2023-05-15T14:40:09.000Z,101426.31
2023-05-15T14:42:36.965Z,101438.56
2023-05-15T14:45:05.303Z,101448.94
2023-05-15T14:47:33.836Z,101437.13
2023-05-15T14:50:01.969Z,101444.94
2023-05-15T14:52:29.929Z,101429.59
2023-05-15T14:55:08.518Z,101423.41
2023-05-15T14:57:38.964Z,101430.03
2023-05-15T15:00:08.347Z,101437.59
2023-05-15T15:02:36.227Z,101445.47
2023-05-15T15:05:04.750Z,101437.19
2023-05-15T15:07:52.952Z,101441.66
2023-05-15T15:10:20.694Z,101444.13
2023-05-15T15:12:52.406Z,101451.91
2023-05-15T15:15:20.673Z,101450.03
2023-05-15T15:17:48.473Z,101455.28
2023-05-15T15:20:18.302Z,101444.41
2023-05-15T15:22:46.277Z,101448.56
2023-05-15T15:25:14.578Z,101438.91
2023-05-15T15:27:42.765Z,101443.34
2023-05-15T15:30:13.092Z,101459.09
2023-05-15T15:32:41.666Z,101454.50
2023-05-15T15:35:09.996Z,101450.91
2023-05-15T15:37:38.990Z,101455.31
2023-05-15T15:40:08.660Z,101456.19
2023-05-15T15:42:36.542Z,101460.69
2023-05-15T15:45:05.788Z,101461.19
2023-05-15T15:47:34.916Z,101463.06
2023-05-15T15:50:02.883Z,101468.38
2023-05-15T15:52:30.919Z,101471.16
2023-05-15T15:54:58.658Z,101462.66
2023-05-15T15:57:26.480Z,101462.94
2023-05-15T15:59:54.270Z,101461.50
2023-05-15T16:02:22.185Z,101458.03
2023-05-15T16:04:51.577Z,101460.16
2023-05-15T16:07:38.030Z,101464.66
2023-05-15T16:10:12.424Z,101460.31
2023-05-15T16:12:42.437Z,101456.13
2023-05-15T16:17:41.916Z,101456.66
2023-05-15T16:20:11.783Z,101449.03
2023-05-15T16:22:41.544Z,101455.41
2023-05-15T16:25:10.128Z,101469.16
2023-05-15T16:27:38.128Z,101468.09
2023-05-15T16:30:06.914Z,101469.81
2023-05-15T16:32:35.555Z,101475.94
2023-05-15T16:35:03.590Z,101481.44
2023-05-15T16:37:32.831Z,101477.44
2023-05-15T16:40:00.740Z,101471.09
2023-05-15T16:42:28.818Z,101475.72
2023-05-15T16:44:56.673Z,101477.91
2023-05-15T16:47:24.562Z,101477.88
2023-05-15T16:49:52.347Z,101476.72
2023-05-15T16:52:20.079Z,101478.97
2023-05-15T16:54:49.274Z,101484.31
2023-05-15T16:57:17.726Z,101490.44
2023-05-15T16:59:46.024Z,101494.78
2023-05-15T17:02:15.355Z,101500.47
2023-05-15T17:04:43.220Z,101504.03
2023-05-15T17:07:10.957Z,101508.94
2023-05-15T17:09:40.156Z,101522.38
2023-05-15T17:12:09.730Z,101522.59
2023-05-15T17:14:37.599Z,101530.69
2023-05-15T17:17:05.832Z,101534.16
2023-05-15T17:19:34.568Z,101530.56
2023-05-15T17:22:02.378Z,101534.63
2023-05-15T17:24:38.764Z,101529.50
2023-05-15T17:27:20.411Z,101529.34
2023-05-15T17:29:48.540Z,101528.66
2023-05-15T17:32:17.468Z,101532.09
2023-05-15T17:34:45.755Z,101529.66
2023-05-15T17:37:13.994Z,101533.56
2023-05-15T17:39:41.880Z,101543.00
2023-05-15T17:42:09.859Z,101551.41
2023-05-15T17:44:39.325Z,101549.91
2023-05-15T17:47:08.567Z,101549.53
2023-05-15T17:49:36.559Z,101556.94
2023-05-15T17:52:04.600Z,101559.66
2023-05-15T17:54:32.509Z,101558.97
2023-05-15T17:57:00.293Z,101562.75
2023-05-15T17:59:28.481Z,101569.91
2023-05-15T18:01:58.082Z,101566.47
2023-05-15T18:04:26.087Z,101568.03
2023-05-15T18:06:53.998Z,101575.59
2023-05-15T18:09:24.004Z,101580.72
2023-05-15T18:11:52.593Z,101582.28
2023-05-15T18:14:20.389Z,101582.63
2023-05-15T18:16:48.197Z,101586.53
2023-05-15T18:19:18.072Z,101588.78
2023-05-15T18:21:46.003Z,101592.03
2023-05-15T18:24:13.717Z,101590.47
2023-05-15T18:26:41.463Z,101597.00
2023-05-15T18:29:09.261Z,101600.94
2023-05-15T18:31:37.323Z,101594.75
2023-05-15T18:34:05.233Z,101594.75
2023-05-15T18:36:34.639Z,101598.53
2023-05-15T18:39:02.600Z,101600.25
2023-05-15T18:41:30.725Z,101608.31
2023-05-15T18:43:58.572Z,101598.34
2023-05-15T18:46:28.160Z,101614.16
2023-05-15T18:48:56.683Z,101617.75
2023-05-15T18:51:24.668Z,101622.03
2023-05-15T18:53:53.748Z,101618.44
2023-05-15T18:56:22.036Z,101621.84
2023-05-15T18:58:49.885Z,101629.38
2023-05-15T19:01:18.095Z,101619.94
2023-05-15T19:03:46.059Z,101624.75
2023-05-15T19:06:19.616Z,101626.50
2023-05-15T19:08:47.729Z,101625.09
2023-05-15T19:11:17.672Z,101629.22
2023-05-15T19:13:45.466Z,101632.28
2023-05-15T19:16:13.433Z,101629.34
2023-05-15T19:18:41.388Z,101637.22
2023-05-15T19:21:09.306Z,101651.25
2023-05-15T19:23:37.159Z,101647.69
2023-05-15T19:26:05.361Z,101652.97
2023-05-15T19:28:34.860Z,101657.44
2023-05-15T19:31:04.261Z,101658.59
2023-05-15T19:33:32.122Z,101662.66
2023-05-15T19:35:59.911Z,101666.59
2023-05-15T19:38:27.978Z,101661.47
2023-05-15T19:40:55.723Z,101671.06
2023-05-15T19:43:24.461Z,101667.81
2023-05-15T19:45:53.597Z,101675.72
2023-05-15T19:48:21.462Z,101678.81
2023-05-15T19:50:49.324Z,101678.44
2023-05-15T19:53:17.159Z,101685.44
2023-05-15T19:55:50.738Z,101681.28
2023-05-15T19:58:21.594Z,101692.09
2023-05-15T20:00:52.595Z,101693.91
2023-05-15T20:03:22.367Z,101691.88
2023-05-15T20:05:50.453Z,101700.38
2023-05-15T20:08:18.175Z,101707.75
2023-05-15T20:10:51.699Z,101706.28
2023-05-15T20:13:19.441Z,101713.25
2023-05-15T20:15:47.913Z,101708.34
2023-05-15T20:18:16.443Z,101706.84
2023-05-15T20:20:46.459Z,101715.31
2023-05-15T20:23:14.363Z,101719.06
2023-05-15T20:25:42.330Z,101728.44
2023-05-15T20:28:10.224Z,101724.13
2023-05-15T20:30:38.116Z,101726.94
2023-05-15T20:33:06.194Z,101729.75
2023-05-15T20:35:34.357Z,101740.78
2023-05-15T20:38:04.320Z,101729.97
2023-05-15T20:40:32.117Z,101734.97
2023-05-15T20:43:01.119Z,101732.78
2023-05-15T20:45:29.831Z,101734.03
2023-05-15T20:47:58.161Z,101738.03
2023-05-15T20:50:26.633Z,101737.19
2023-05-15T20:52:55.438Z,101737.41
2023-05-15T20:55:24.689Z,101738.19
2023-05-15T20:57:52.519Z,101748.16
2023-05-15T21:00:20.428Z,101749.09
2023-05-15T21:02:48.328Z,101746.19
2023-05-15T21:05:16.576Z,101752.00
2023-05-15T21:07:44.445Z,101751.75
2023-05-15T21:10:12.661Z,101749.56
2023-05-15T21:12:42.214Z,101743.00
2023-05-15T21:15:11.268Z,101745.66
2023-05-15T21:17:39.778Z,101754.81
2023-05-15T21:20:09.137Z,101746.09
2023-05-15T21:22:37.281Z,101742.75
2023-05-15T21:25:05.833Z,101749.44
2023-05-15T21:27:33.604Z,101751.19
2023-05-15T21:30:03.016Z,101749.44
2023-05-15T21:32:30.830Z,101753.50
2023-05-15T21:34:58.746Z,101756.97
2023-05-15T21:37:27.365Z,101752.56
2023-05-15T21:39:55.251Z,101759.84
2023-05-15T21:42:23.470Z,101761.06
2023-05-15T21:44:51.277Z,101759.44
2023-05-15T21:47:20.384Z,101759.16
2023-05-15T21:49:48.545Z,101757.47
2023-05-15T21:52:16.500Z,101759.75
2023-05-15T21:54:44.661Z,101760.41
2023-05-15T21:57:12.390Z,101765.31
2023-05-15T21:59:40.167Z,101772.13
2023-05-15T22:02:08.365Z,101763.44
2023-05-15T22:04:37.726Z,101765.53
2023-05-15T22:07:05.837Z,101755.25
2023-05-15T22:09:33.786Z,101765.63
2023-05-15T22:12:01.547Z,101763.38
2023-05-15T22:14:29.639Z,101761.13
2023-05-15T22:16:57.836Z,101754.25
2023-05-15T22:19:33.023Z,101769.69
2023-05-15T22:22:03.395Z,101767.38
2023-05-15T22:24:31.409Z,101773.63
2023-05-15T22:27:00.006Z,101774.72
2023-05-15T22:29:28.267Z,101772.31
2023-05-15T22:31:56.179Z,101777.22
2023-05-15T22:34:25.326Z,101775.94
2023-05-15T22:39:23.350Z,101782.06
2023-05-15T22:41:51.503Z,101787.59
2023-05-15T22:44:19.226Z,101777.22
2023-05-15T22:46:47.037Z,101774.25
2023-05-15T22:49:19.217Z,101780.81
2023-05-15T22:51:47.125Z,101787.06
2023-05-15T22:54:15.165Z,101787.84
2023-05-15T22:56:44.351Z,101793.75
2023-05-15T22:59:12.093Z,101797.78
2023-05-15T23:01:40.080Z,101795.72
2023-05-15T23:04:08.157Z,101800.09
2023-05-15T23:06:36.035Z,101802.28
2023-05-15T23:09:04.695Z,101798.91
2023-05-15T23:11:32.768Z,101811.53
2023-05-15T23:14:02.972Z,101796.69
2023-05-15T23:16:30.910Z,101799.88
2023-05-15T23:18:58.938Z,101804.94
2023-05-15T23:21:27.204Z,101804.88
2023-05-15T23:23:55.431Z,101803.94
2023-05-15T23:26:23.397Z,101796.19
2023-05-15T23:28:51.410Z,101803.25
2023-05-15T23:31:20.655Z,101804.47
2023-05-15T23:33:48.589Z,101800.97
2023-05-15T23:36:16.426Z,101808.47
2023-05-15T23:38:44.393Z,101807.44
2023-05-15T23:41:12.194Z,101798.41
2023-05-15T23:43:39.984Z,101808.16
2023-05-15T23:46:07.763Z,101804.09
2023-05-15T23:48:36.956Z,101804.63
2023-05-15T23:51:04.844Z,101813.28
2023-05-15T23:53:32.922Z,101816.88
2023-05-15T23:56:00.833Z,101805.00
2023-05-15T23:58:29.220Z,101813.75
